Time;durP1;ratioP1;P1;durP2;ratioP2;P2;SDS_P1;SDS_P2;PMS_P1;PMS_P2;Temp;Humidity;BMP_temperature;BMP_pressure;BME280_temperature;BME280_humidity;BME280_pressure;Samples;Min_cycle;Max_cycle;Signal;HPM_P1;HPM_P2
2022/08/08 00:01:11;;;;;;;9.02;7.75;;;;;;;25.49;65.78;94735.56;5014012;28;20225;-91
2022/08/08 00:03:50;;;;;;;8.40;7.57;;;;;;;25.44;66.27;94732.84;5032082;28;20623;-87
2022/08/08 00:06:29;;;;;;;8.43;7.72;;;;;;;25.44;66.38;94732.84;5033861;28;20199;-90
2022/08/08 00:09:03;;;;;;;8.70;7.80;;;;;;;25.34;66.16;94713.47;5031561;28;20266;-88
2022/08/08 00:11:39;;;;;;;8.68;7.20;;;;;;;25.37;66.13;94729.53;5030977;28;20199;-88
2022/08/08 00:14:09;;;;;;;8.45;7.18;;;;;;;25.23;66.28;94715.09;5030852;28;20654;-91
2022/08/08 00:16:47;;;;;;;10.90;7.88;;;;;;;25.35;66.22;94736.03;5032626;28;20192;-90
2022/08/08 00:19:22;;;;;;;8.85;7.95;;;;;;;25.26;66.58;94728.53;5035397;28;20195;-90
2022/08/08 00:21:56;;;;;;;7.85;7.10;;;;;;;25.28;66.24;94736.94;5031042;28;20195;-88
2022/08/08 00:24:28;;;;;;;8.10;7.43;;;;;;;25.24;66.42;94735.78;5032581;28;20710;-89
2022/08/08 00:26:58;;;;;;;8.32;7.53;;;;;;;25.20;66.23;94739.91;5031567;28;20184;-89
2022/08/08 00:29:30;;;;;;;9.30;7.75;;;;;;;25.07;66.49;94721.75;5037732;28;20202;-88
2022/08/08 00:32:04;;;;;;;9.10;8.02;;;;;;;24.89;66.44;94703.56;5053316;28;20187;-88
2022/08/08 00:35:15;;;;;;;8.13;7.32;;;;;;;25.12;66.77;94753.31;5053105;28;20712;-87
2022/08/08 00:37:57;;;;;;;8.45;7.75;;;;;;;25.09;66.88;94737.28;5052859;28;20229;-88
2022/08/08 00:41:05;;;;;;;8.23;7.43;;;;;;;25.05;66.69;94738.72;5052336;28;20198;-88
2022/08/08 00:44:03;;;;;;;8.30;7.47;;;;;;;24.99;66.90;94740.41;4913892;29;20238;-89
2022/08/08 00:46:56;;;;;;;9.07;8.23;;;;;;;24.89;67.02;94727.09;4914006;29;20211;-88
2022/08/08 00:50:09;;;;;;;10.25;7.88;;;;;;;24.89;66.95;94732.34;4914016;29;20668;-90
2022/08/08 00:52:52;;;;;;;8.57;7.75;;;;;;;24.89;67.17;94740.97;4857674;29;20209;-90
2022/08/08 00:56:08;;;;;;;8.75;8.00;;;;;;;24.77;67.21;94722.63;4857514;29;20285;-87
2022/08/08 00:58:56;;;;;;;8.23;7.43;;;;;;;24.84;67.08;94740.06;4785589;30;20269;-92
2022/08/08 01:01:30;;;;;;;8.07;7.28;;;;;;;24.71;67.60;94720.94;4785729;30;20201;-90
2022/08/08 01:04:34;;;;;;;8.50;7.70;;;;;;;24.76;67.74;94735.94;4785855;30;20238;-89
2022/08/08 01:07:37;;;;;;;8.50;7.70;;;;;;;24.75;67.71;94739.59;4787783;30;20219;-88
2022/08/08 01:10:36;;;;;;;8.73;7.40;;;;;;;24.72;67.68;94737.41;4786251;30;20212;-86
2022/08/08 01:13:34;;;;;;;10.52;7.97;;;;;;;24.72;67.66;94740.81;4784334;30;20209;-89
2022/08/08 01:16:35;;;;;;;8.52;7.72;;;;;;;24.61;67.63;94728.53;4784827;29;20204;-88
2022/08/08 01:19:38;;;;;;;8.52;7.60;;;;;;;24.61;68.06;94746.84;4784649;29;20212;-88
2022/08/08 01:22:49;;;;;;;8.43;7.53;;;;;;;24.65;67.91;94742.72;4913785;29;20196;-89
2022/08/08 01:26:00;;;;;;;8.38;7.57;;;;;;;24.65;67.73;94750.59;4874829;29;20870;-86
2022/08/08 01:28:51;;;;;;;8.77;7.90;;;;;;;24.60;68.04;94741.81;4933501;29;20205;-87
2022/08/08 01:32:01;;;;;;;8.75;7.15;;;;;;;24.58;68.00;94743.88;4934035;29;20180;-86
2022/08/08 01:35:05;;;;;;;7.75;7.15;;;;;;;24.61;68.35;94764.31;4941962;28;20196;-88
2022/08/08 01:38:03;;;;;;;7.93;7.20;;;;;;;24.62;68.02;94758.91;5013811;28;20192;-91
2022/08/08 01:40:35;;;;;;;8.25;7.47;;;;;;;24.66;68.11;94762.66;5012211;28;20695;-88
2022/08/08 01:43:14;;;;;;;8.63;7.82;;;;;;;24.75;67.58;94770.97;5011187;28;20238;-88
2022/08/08 01:45:55;;;;;;;7.82;7.13;;;;;;;24.71;67.83;94768.00;5010849;28;20188;-90
2022/08/08 01:48:39;;;;;;;8.35;7.53;;;;;;;24.70;67.68;94768.25;5012096;28;20196;-89
2022/08/08 01:51:36;;;;;;;11.15;7.07;;;;;;;24.68;67.83;94759.81;5012473;28;20185;-90
2022/08/08 01:54:14;;;;;;;8.77;7.90;;;;;;;24.58;68.05;94752.50;4952908;29;20226;-89
2022/08/08 01:56:59;;;;;;;9.68;7.72;;;;;;;24.63;68.03;94768.31;4963966;29;20390;-87
2022/08/08 01:59:43;;;;;;;9.57;7.43;;;;;;;24.41;68.17;94734.03;4963002;29;20258;-84
2022/08/08 02:02:20;;;;;;;8.07;7.35;;;;;;;24.43;68.15;94734.59;5006872;28;20272;-89
2022/08/08 02:05:00;;;;;;;9.10;8.13;;;;;;;24.48;68.06;94745.22;5029039;28;20230;-89
2022/08/08 02:07:38;;;;;;;9.02;8.13;;;;;;;24.39;68.39;94730.03;5020678;28;20207;-88
2022/08/08 02:10:28;;;;;;;9.73;8.48;;;;;;;24.32;68.35;94729.31;5013754;28;20196;-85
2022/08/08 02:13:00;;;;;;;11.07;8.05;;;;;;;24.08;68.12;94691.84;5012458;28;20219;-88
2022/08/08 02:15:34;;;;;;;10.60;8.40;;;;;;;24.50;68.31;94763.28;5012476;28;20189;-87
2022/08/08 02:18:09;;;;;;;10.18;8.82;;;;;;;24.44;68.04;94754.53;5010175;28;20195;-89
2022/08/08 02:22:30;;;;;;;9.55;8.55;;;;;;;24.57;68.32;94771.84;5009790;28;20612;-86
2022/08/08 02:23:42;;;;;;;10.30;8.00;;;;;;;24.34;68.01;94724.66;5009114;28;20295;-88
2022/08/08 02:26:16;;;;;;;9.15;8.25;;;;;;;24.52;68.95;94764.66;5008660;28;20192;-87
2022/08/08 02:28:57;;;;;;;10.15;8.43;;;;;;;24.12;69.16;94717.31;5009001;28;20640;-87
2022/08/08 02:31:40;;;;;;;8.75;7.85;;;;;;;24.41;69.22;94760.19;5033087;28;20371;-85
2022/08/08 02:34:17;;;;;;;8.68;7.88;;;;;;;24.43;69.44;94768.59;5050453;28;20268;-87
2022/08/08 02:37:01;;;;;;;9.55;7.72;;;;;;;24.42;68.79;94772.22;5057274;28;20191;-87
2022/08/08 02:43:07;;;;;;;11.60;7.10;;;;;;;24.30;68.91;94768.72;5088938;27;20554;-89
2022/08/08 02:46:22;;;;;;;8.07;7.28;;;;;;;24.40;68.49;94784.75;5066565;28;20198;-90
2022/08/08 02:49:27;;;;;;;12.10;7.70;;;;;;;24.28;68.69;94774.19;4984701;28;20189;-88
2022/08/08 02:52:24;;;;;;;9.32;7.75;;;;;;;24.30;68.38;94787.03;4872208;29;20685;-92
2022/08/08 02:55:07;;;;;;;8.00;7.20;;;;;;;24.25;68.12;94789.50;4872894;29;20221;-90
2022/08/08 02:58:22;;;;;;;8.00;7.30;;;;;;;24.12;67.80;94777.41;4872664;29;20204;-89
2022/08/08 03:01:21;;;;;;;7.00;6.40;;;;;;;24.17;67.93;94781.97;4835456;29;20297;-90
2022/08/08 03:04:32;;;;;;;9.45;7.18;;;;;;;24.11;67.68;94780.25;4818411;29;20660;-91
2022/08/08 03:07:39;;;;;;;8.40;7.45;;;;;;;24.10;68.18;94786.50;4818161;29;20199;-90
2022/08/08 03:11:07;;;;;;;8.65;7.65;;;;;;;24.08;68.21;94791.91;4817649;29;20225;-91
2022/08/08 03:13:49;;;;;;;8.80;7.00;;;;;;;24.00;68.01;94777.34;4817622;29;20659;-92
2022/08/08 03:16:25;;;;;;;8.02;7.22;;;;;;;23.51;68.10;94703.31;4802375;29;20210;-91
2022/08/08 03:19:04;;;;;;;8.82;7.30;;;;;;;23.87;68.59;94776.69;4817844;29;20206;-86
2022/08/08 03:21:31;;;;;;;9.20;7.03;;;;;;;23.96;68.34;94793.66;4823196;29;20234;-92
2022/08/08 03:23:59;;;;;;;12.85;7.05;;;;;;;23.94;68.04;94799.13;4891784;29;20603;-93
2022/08/08 03:26:31;;;;;;;7.22;6.55;;;;;;;23.90;68.30;94800.56;4893080;29;20672;-90
2022/08/08 03:29:02;;;;;;;8.07;7.22;;;;;;;23.64;67.90;94759.03;4945655;28;20198;-93
2022/08/08 03:34:14;;;;;;;7.63;6.93;;;;;;;23.85;68.22;94802.25;4967989;28;20217;-91
2022/08/08 03:36:42;;;;;;;7.88;7.20;;;;;;;23.78;68.15;94797.88;4993807;28;20197;-95
2022/08/08 03:39:14;;;;;;;8.45;7.55;;;;;;;23.80;68.24;94808.13;5046129;28;20199;-86
2022/08/08 03:41:41;;;;;;;7.22;6.53;;;;;;;23.60;68.43;94773.53;5082492;28;20240;-92
2022/08/08 03:44:08;;;;;;;10.30;7.32;;;;;;;23.77;68.48;94811.16;5088840;28;20684;-91
2022/08/08 03:46:45;;;;;;;11.65;6.78;;;;;;;23.75;68.25;94805.38;5088121;28;20691;-92
2022/08/08 03:49:19;;;;;;;8.45;7.65;;;;;;;23.61;68.51;94793.41;5088897;28;20194;-91
2022/08/08 03:51:46;;;;;;;8.07;7.28;;;;;;;23.42;68.51;94771.69;5085409;28;20202;-92
2022/08/08 03:54:15;;;;;;;8.50;7.43;;;;;;;23.54;68.31;94777.81;5075482;28;20229;-91
2022/08/08 03:56:42;;;;;;;8.10;6.65;;;;;;;23.71;68.41;94807.59;5075038;28;20197;-90
2022/08/08 03:59:09;;;;;;;7.53;6.82;;;;;;;23.57;68.87;94803.47;5075157;28;20194;-91
2022/08/08 04:01:38;;;;;;;7.72;7.03;;;;;;;23.36;68.49;94762.09;5074404;28;20575;-92
2022/08/08 04:04:05;;;;;;;9.40;7.45;;;;;;;23.64;68.95;94809.44;5073847;28;20209;-89
2022/08/08 04:06:33;;;;;;;7.60;6.82;;;;;;;23.57;69.19;94806.09;5073395;28;20201;-90
2022/08/08 04:09:01;;;;;;;7.40;6.70;;;;;;;23.69;68.90;94814.03;5077695;28;20650;-91
2022/08/08 04:11:31;;;;;;;8.15;6.43;;;;;;;23.63;69.31;94815.69;5074572;28;20576;-84
2022/08/08 04:13:58;;;;;;;9.73;7.93;;;;;;;23.57;69.62;94816.53;5074536;28;20323;-91
2022/08/08 04:16:25;;;;;;;7.95;6.90;;;;;;;23.59;69.39;94816.34;5074381;28;20202;-89
2022/08/08 04:18:52;;;;;;;9.70;7.82;;;;;;;23.35;69.64;94778.78;5077387;28;20193;-88
2022/08/08 04:21:22;;;;;;;11.90;7.10;;;;;;;23.57;69.90;94821.75;5075536;28;20719;-89
2022/08/08 04:23:52;;;;;;;8.10;7.30;;;;;;;23.56;69.90;94819.38;5076754;28;20253;-87
2022/08/08 04:26:19;;;;;;;8.38;7.50;;;;;;;23.56;70.36;94821.97;5074335;28;20274;-93
2022/08/08 04:28:48;;;;;;;9.38;8.32;;;;;;;23.53;70.27;94836.25;5074665;28;20273;-94
2022/08/08 04:33:44;;;;;;;10.40;8.95;;;;;;;23.37;71.15;94814.13;5012092;28;20274;-90
2022/08/08 04:36:11;;;;;;;11.05;8.55;;;;;;;23.45;71.28;94829.50;5013701;28;20235;-91
2022/08/08 04:38:38;;;;;;;11.13;8.27;;;;;;;23.42;71.91;94829.94;5013364;28;20196;-90
2022/08/08 04:41:05;;;;;;;10.10;9.10;;;;;;;23.36;71.64;94829.97;5012491;28;20318;-83
2022/08/08 04:43:33;;;;;;;9.27;8.38;;;;;;;23.18;71.63;94794.97;5011686;28;20279;-85
2022/08/08 04:46:01;;;;;;;8.63;7.82;;;;;;;23.22;71.42;94800.56;5012093;28;20281;-84
2022/08/08 04:48:28;;;;;;;9.23;8.23;;;;;;;23.47;71.55;94837.91;5012057;28;20199;-84
2022/08/08 04:50:55;;;;;;;9.27;8.38;;;;;;;23.41;71.98;94838.78;5011948;28;20204;-85
2022/08/08 04:53:22;;;;;;;10.07;8.75;;;;;;;23.44;72.85;94837.53;5011514;28;20188;-85
2022/08/08 04:55:49;;;;;;;10.00;9.07;;;;;;;23.42;72.83;94827.31;5011510;28;20207;-84
2022/08/08 04:58:16;;;;;;;11.55;9.27;;;;;;;23.33;72.43;94802.50;5011028;28;20188;-83
2022/08/08 05:00:43;;;;;;;10.95;9.18;;;;;;;23.68;72.35;94838.56;5011807;28;20599;-85
2022/08/08 05:03:11;;;;;;;13.52;9.85;;;;;;;23.74;72.31;94840.31;5011347;28;20196;-84
2022/08/08 05:05:38;;;;;;;13.05;10.88;;;;;;;23.61;72.19;94838.59;5011216;28;20198;-84
2022/08/08 05:08:05;;;;;;;11.52;10.32;;;;;;;23.60;71.88;94844.03;5011381;28;20203;-84
2022/08/08 05:10:32;;;;;;;12.57;10.60;;;;;;;23.48;71.75;94820.44;5011304;28;20192;-85
2022/08/08 05:12:59;;;;;;;13.45;11.52;;;;;;;23.47;71.60;94843.13;5011453;28;20198;-82
2022/08/08 05:15:26;;;;;;;11.55;10.35;;;;;;;23.33;71.68;94841.66;5011150;28;20211;-84
2022/08/08 05:17:53;;;;;;;17.88;11.35;;;;;;;23.24;72.86;94842.94;5011823;28;20667;-85
2022/08/08 05:20:21;;;;;;;10.57;9.38;;;;;;;23.45;72.96;94847.78;5011471;28;20188;-84
2022/08/08 05:22:49;;;;;;;13.05;10.35;;;;;;;23.61;72.13;94849.03;5011315;28;20216;-85
2022/08/08 05:25:16;;;;;;;13.02;11.70;;;;;;;23.54;71.55;94853.53;5010767;28;20586;-86
2022/08/08 05:27:43;;;;;;;15.27;10.00;;;;;;;23.56;72.06;94853.31;5011484;28;20560;-86
2022/08/08 05:30:10;;;;;;;13.00;9.77;;;;;;;23.56;71.60;94821.97;5011422;28;20192;-84
2022/08/08 05:32:38;;;;;;;11.38;9.68;;;;;;;23.87;71.52;94855.06;5011555;28;20239;-85
2022/08/08 05:35:06;;;;;;;16.55;11.23;;;;;;;24.01;70.99;94856.53;5010948;28;20196;-85
2022/08/08 05:37:38;;;;;;;14.50;10.02;;;;;;;24.13;70.98;94859.22;5011188;28;20192;-83
2022/08/08 05:40:07;;;;;;;12.50;10.30;;;;;;;23.98;70.62;94815.16;5010820;28;20267;-85
2022/08/08 05:42:40;;;;;;;13.82;9.88;;;;;;;24.40;70.41;94862.38;5010987;28;20719;-84
2022/08/08 05:45:09;;;;;;;14.13;10.57;;;;;;;24.60;69.05;94862.13;5010862;28;20188;-83
2022/08/08 05:47:37;;;;;;;10.70;9.48;;;;;;;24.75;68.87;94860.72;5012012;28;20223;-84
2022/08/08 05:50:05;;;;;;;14.07;9.65;;;;;;;24.85;68.61;94859.38;5010835;28;20200;-84
2022/08/08 05:52:36;;;;;;;11.70;9.45;;;;;;;25.04;67.61;94871.38;5010998;28;20223;-85
2022/08/08 05:55:03;;;;;;;17.77;9.85;;;;;;;24.92;66.30;94839.97;5010923;28;20704;-85
2022/08/08 05:57:34;;;;;;;14.07;10.27;;;;;;;25.18;66.42;94870.22;5011111;28;20200;-84
2022/08/08 06:00:07;;;;;;;18.40;10.15;;;;;;;24.94;66.72;94811.75;5011025;28;20574;-85
2022/08/08 06:05:21;;;;;;;10.07;8.13;;;;;;;25.53;65.45;94859.78;5019727;28;20202;-86
2022/08/08 06:07:51;;;;;;;12.75;9.20;;;;;;;25.64;65.35;94865.25;5019964;28;20549;-85
2022/08/08 06:10:19;;;;;;;11.10;9.93;;;;;;;25.86;65.66;94870.75;5020561;28;20303;-82
2022/08/08 06:12:49;;;;;;;10.85;8.73;;;;;;;25.92;64.95;94872.47;5020897;28;20191;-85
2022/08/08 06:15:16;;;;;;;8.50;7.60;;;;;;;25.99;62.58;94870.53;5020046;28;20199;-86
2022/08/08 06:17:43;;;;;;;11.75;7.93;;;;;;;25.96;62.14;94868.38;5019011;28;20198;-86
2022/08/08 06:20:12;;;;;;;8.85;7.25;;;;;;;26.07;62.44;94872.81;5017327;28;20200;-86
2022/08/08 06:22:40;;;;;;;12.32;7.80;;;;;;;26.20;62.38;94874.38;5019005;28;20230;-84
2022/08/08 06:25:09;;;;;;;12.65;7.85;;;;;;;26.33;61.73;94873.34;5015219;28;20193;-84
2022/08/08 06:27:43;;;;;;;8.63;7.75;;;;;;;26.19;61.18;94851.81;5011860;28;20180;-83
2022/08/08 06:30:12;;;;;;;11.90;7.47;;;;;;;26.47;61.55;94878.13;5011947;28;20583;-86
2022/08/08 06:32:43;;;;;;;14.77;7.03;;;;;;;26.60;61.90;94878.88;5011388;28;20703;-86
2022/08/08 06:35:13;;;;;;;9.70;7.05;;;;;;;26.45;60.79;94861.03;5012953;28;20207;-85
2022/08/08 06:37:45;;;;;;;8.23;7.07;;;;;;;26.51;60.49;94857.47;5014308;28;20192;-88
2022/08/08 06:40:15;;;;;;;11.75;8.10;;;;;;;26.70;60.31;94876.47;5010488;28;20191;-85
2022/08/08 06:42:51;;;;;;;8.15;7.25;;;;;;;26.76;60.67;94872.91;5010745;28;20216;-82
2022/08/08 06:45:20;;;;;;;12.35;8.30;;;;;;;26.93;60.06;94881.63;5010205;28;20241;-85
2022/08/08 06:47:47;;;;;;;10.77;7.57;;;;;;;26.96;59.46;94883.00;5011063;28;20739;-85
2022/08/08 06:50:16;;;;;;;12.50;7.65;;;;;;;27.00;58.92;94868.38;5010858;28;20200;-86
2022/08/08 06:52:46;;;;;;;9.05;8.15;;;;;;;27.25;57.93;94884.59;5011394;28;20184;-85
2022/08/08 06:55:20;;;;;;;9.38;7.75;;;;;;;27.36;57.89;94890.78;5017223;28;20195;-86
2022/08/08 06:58:02;;;;;;;8.10;6.75;;;;;;;27.42;58.12;94892.50;5017644;28;20196;-87
2022/08/08 07:00:32;;;;;;;11.25;6.88;;;;;;;27.55;58.12;94883.50;5017109;28;20184;-87
2022/08/08 07:03:06;;;;;;;9.73;7.30;;;;;;;27.64;56.25;94876.81;5017234;28;20228;-87
2022/08/08 07:05:39;;;;;;;10.75;7.40;;;;;;;27.82;56.90;94885.50;5014251;28;20188;-86
2022/08/08 07:08:12;;;;;;;11.10;7.28;;;;;;;27.97;56.65;94889.13;5013463;28;20192;-87
2022/08/08 07:10:49;;;;;;;13.38;7.55;;;;;;;28.13;55.32;94895.41;5013420;28;20204;-85
2022/08/08 07:13:17;;;;;;;6.75;6.10;;;;;;;28.11;53.78;94857.22;5011732;28;20199;-83
2022/08/08 07:15:47;;;;;;;6.57;5.97;;;;;;;28.44;54.20;94887.94;5014523;28;20191;-87
2022/08/08 07:18:20;;;;;;;8.93;6.15;;;;;;;28.48;54.09;94887.22;5014280;28;20207;-86
2022/08/08 07:20:51;;;;;;;8.85;6.50;;;;;;;28.60;54.04;94883.66;5010575;28;20199;-86
2022/08/08 07:23:31;;;;;;;7.63;6.45;;;;;;;28.83;52.51;94898.41;5011324;28;20213;-86
2022/08/08 07:26:03;;;;;;;6.63;6.00;;;;;;;28.97;51.97;94889.91;5014999;28;20192;-86
2022/08/08 07:28:31;;;;;;;7.55;6.60;;;;;;;29.17;51.36;94899.84;5014821;28;20247;-84
2022/08/08 07:30:59;;;;;;;9.23;6.10;;;;;;;29.30;50.20;94896.00;5015456;28;20192;-84
2022/08/08 07:33:28;;;;;;;7.57;5.88;;;;;;;29.38;49.84;94900.03;5013638;28;20224;-84
2022/08/08 07:35:59;;;;;;;6.80;6.15;;;;;;;29.50;48.76;94903.31;5016432;28;20196;-86
2022/08/08 07:38:27;;;;;;;6.65;5.95;;;;;;;29.55;49.80;94889.38;5014896;28;20220;-86
2022/08/08 07:40:57;;;;;;;6.95;6.10;;;;;;;29.73;47.99;94887.16;5014424;28;20250;-85
2022/08/08 07:43:26;;;;;;;7.82;6.35;;;;;;;29.84;48.38;94895.16;5014362;28;20218;-86
2022/08/08 07:45:53;;;;;;;11.85;6.88;;;;;;;29.45;49.49;94861.09;5014039;28;20250;-87
2022/08/08 07:48:20;;;;;;;11.60;6.22;;;;;;;29.78;49.36;94896.16;5014640;28;20203;-86
2022/08/08 07:50:49;;;;;;;6.90;5.50;;;;;;;29.89;47.35;94882.00;5015094;28;20203;-86
2022/08/08 07:53:21;;;;;;;8.32;5.70;;;;;;;30.00;47.89;94879.16;5014131;28;20184;-85
2022/08/08 07:55:50;;;;;;;5.88;5.20;;;;;;;30.21;47.48;94880.09;5014318;28;20192;-85
2022/08/08 07:58:30;;;;;;;7.53;5.60;;;;;;;30.21;46.50;94866.13;5013866;28;20667;-85
2022/08/08 08:01:09;;;;;;;6.90;5.80;;;;;;;30.41;47.06;94878.63;5016827;28;20195;-82
2022/08/08 08:03:45;;;;;;;6.40;5.80;;;;;;;30.49;46.52;94871.03;5015141;28;20247;-87
2022/08/08 08:06:14;;;;;;;6.60;5.53;;;;;;;30.65;45.46;94871.84;5016522;28;20196;-84
2022/08/08 08:08:43;;;;;;;5.82;5.22;;;;;;;30.80;44.68;94873.00;5017644;28;20204;-84
2022/08/08 08:11:13;;;;;;;7.95;5.38;;;;;;;30.60;44.84;94826.16;5015000;28;20200;-84
2022/08/08 08:13:47;;;;;;;7.30;5.35;;;;;;;31.01;45.29;94872.00;5014727;28;20192;-85
2022/08/08 08:16:21;;;;;;;7.90;4.40;;;;;;;31.13;44.18;94877.00;5014860;28;20188;-85
2022/08/08 08:18:53;;;;;;;8.80;4.72;;;;;;;31.27;43.31;94872.81;5014569;28;20188;-83
2022/08/08 08:21:20;;;;;;;6.50;4.88;;;;;;;31.33;42.86;94869.16;5013368;28;20602;-84
2022/08/08 08:23:47;;;;;;;4.75;4.35;;;;;;;31.44;41.76;94867.31;5013135;28;20699;-84
2022/08/08 08:26:17;;;;;;;5.07;4.57;;;;;;;31.56;41.45;94862.53;5013524;28;20196;-85
2022/08/08 08:28:44;;;;;;;5.70;4.13;;;;;;;31.41;41.25;94842.19;5013031;28;20239;-87
2022/08/08 08:31:11;;;;;;;7.13;4.20;;;;;;;31.73;40.34;94867.53;5014194;28;20196;-84
2022/08/08 08:33:39;;;;;;;4.55;4.05;;;;;;;31.82;40.31;94865.16;5014609;28;20228;-84
2022/08/08 08:36:07;;;;;;;4.28;3.97;;;;;;;31.87;40.66;94863.34;5015669;28;20195;-86
2022/08/08 08:38:34;;;;;;;5.05;4.03;;;;;;;31.94;40.35;94858.56;5012966;28;20203;-85
2022/08/08 08:41:02;;;;;;;7.68;4.13;;;;;;;31.76;39.12;94855.66;5012859;28;20200;-85
2022/08/08 08:43:30;;;;;;;5.07;3.55;;;;;;;31.72;39.23;94845.59;5017878;28;20715;-85
2022/08/08 08:45:59;;;;;;;7.55;4.05;;;;;;;31.63;39.12;94823.41;5015755;28;20220;-86
2022/08/08 08:48:26;;;;;;;4.47;3.50;;;;;;;31.67;38.64;94818.38;5013387;28;20192;-83
2022/08/08 08:50:55;;;;;;;4.20;3.33;;;;;;;31.92;38.98;94851.97;5015340;28;20193;-86
2022/08/08 08:53:22;;;;;;;3.80;3.35;;;;;;;31.99;38.57;94860.41;5013198;28;20193;-85
2022/08/08 08:55:50;;;;;;;3.50;3.20;;;;;;;32.02;38.54;94857.22;5012337;28;20196;-87
2022/08/08 08:58:25;;;;;;;4.07;3.53;;;;;;;32.04;38.99;94852.47;5013214;28;20196;-87
2022/08/08 09:00:52;;;;;;;6.60;3.20;;;;;;;31.94;38.60;94823.38;5013340;28;20218;-83
2022/08/08 09:03:23;;;;;;;5.32;3.00;;;;;;;32.08;36.46;94847.41;5012513;28;20699;-84
2022/08/08 09:05:50;;;;;;;3.97;3.28;;;;;;;32.06;37.30;94844.25;5011921;28;20228;-82
2022/08/08 09:08:22;;;;;;;6.13;3.30;;;;;;;32.03;36.77;94840.28;5012388;28;20215;-81
2022/08/08 09:10:49;;;;;;;3.70;3.40;;;;;;;32.05;37.63;94838.16;5011651;28;20538;-82
2022/08/08 09:13:18;;;;;;;3.50;3.03;;;;;;;32.08;37.43;94835.00;5011601;28;20181;-80
2022/08/08 09:15:45;;;;;;;4.65;3.28;;;;;;;32.06;37.13;94831.81;5011626;28;20185;-81
2022/08/08 09:18:12;;;;;;;6.22;3.70;;;;;;;31.95;37.61;94828.41;5011374;28;20196;-82
2022/08/08 09:20:39;;;;;;;6.28;3.47;;;;;;;31.94;38.02;94818.09;5011230;28;20215;-82
2022/08/08 09:23:07;;;;;;;3.83;3.50;;;;;;;31.97;37.79;94831.56;5011821;28;20216;-82
2022/08/08 09:25:38;;;;;;;5.60;3.42;;;;;;;31.82;37.37;94817.53;5011275;28;20200;-81
2022/08/08 09:28:05;;;;;;;7.85;3.40;;;;;;;31.72;37.44;94778.69;5011356;28;20206;-80
2022/08/08 09:30:33;;;;;;;5.88;3.50;;;;;;;32.04;37.47;94822.53;5011339;28;20255;-80
2022/08/08 09:33:03;;;;;;;4.50;3.35;;;;;;;32.02;37.63;94816.75;5012680;28;20236;-85
2022/08/08 09:35:32;;;;;;;3.75;3.30;;;;;;;32.05;38.02;94813.56;5011657;28;20192;-87
2022/08/08 09:38:02;;;;;;;4.07;3.13;;;;;;;32.05;37.71;94811.72;5012016;28;20188;-85
2022/08/08 09:40:30;;;;;;;3.10;2.80;;;;;;;32.06;36.93;94809.84;5011439;28;20580;-86
2022/08/08 09:43:08;;;;;;;5.90;3.30;;;;;;;31.92;36.82;94797.19;5011388;28;20231;-86
2022/08/08 09:45:45;;;;;;;4.55;3.55;;;;;;;31.98;36.42;94792.66;5011205;28;20196;-86
2022/08/08 09:48:12;;;;;;;4.80;2.80;;;;;;;31.92;36.48;94801.69;5011251;28;20747;-85
2022/08/08 09:50:41;;;;;;;3.83;3.30;;;;;;;31.88;36.90;94805.94;5011196;28;20192;-86
2022/08/08 09:53:12;;;;;;;3.28;2.80;;;;;;;31.83;36.24;94780.28;5011388;28;20203;-86
2022/08/08 09:55:39;;;;;;;3.88;3.05;;;;;;;31.81;36.31;94789.50;5011280;28;20259;-84
2022/08/08 09:58:15;;;;;;;4.30;2.97;;;;;;;31.74;36.82;94787.16;5011124;28;20223;-85
2022/08/08 10:00:43;;;;;;;6.05;3.75;;;;;;;31.64;36.31;94774.72;5011461;28;20199;-85
2022/08/08 10:03:14;;;;;;;4.03;3.13;;;;;;;31.41;35.81;94756.81;5011047;28;20306;-85
2022/08/08 10:05:41;;;;;;;4.95;3.00;;;;;;;31.54;36.75;94777.41;5010769;28;20203;-84
2022/08/08 10:08:08;;;;;;;4.38;3.15;;;;;;;31.58;36.56;94778.47;5010545;28;20541;-82
2022/08/08 10:10:37;;;;;;;4.50;3.10;;;;;;;31.61;37.10;94774.50;5010446;28;20298;-82
2022/08/08 10:13:17;;;;;;;3.80;2.80;;;;;;;31.65;36.87;94775.53;5010592;28;20191;-81
2022/08/08 10:15:46;;;;;;;3.92;3.50;;;;;;;31.68;37.22;94777.63;5010230;28;20188;-83
2022/08/08 10:18:23;;;;;;;4.05;3.05;;;;;;;31.70;36.85;94772.88;5010176;28;20295;-81
2022/08/08 10:20:53;;;;;;;4.32;3.22;;;;;;;31.63;36.17;94764.44;5010821;28;20251;-81
2022/08/08 10:23:26;;;;;;;4.82;2.70;;;;;;;31.48;35.35;94766.06;5009920;28;20259;-82
2022/08/08 10:25:56;;;;;;;3.58;2.75;;;;;;;31.51;36.37;94761.28;5010430;28;20192;-82
2022/08/08 10:28:25;;;;;;;5.90;2.88;;;;;;;31.43;36.00;94758.13;5010192;28;20202;-82
2022/08/08 10:30:58;;;;;;;4.45;2.63;;;;;;;31.42;35.91;94751.25;5010470;28;20271;-83
2022/08/08 10:33:31;;;;;;;5.38;3.33;;;;;;;31.44;36.02;94745.72;5009959;28;20235;-80
2022/08/08 10:36:02;;;;;;;3.08;2.72;;;;;;;31.49;35.88;94753.63;5010769;28;20192;-80
2022/08/08 10:38:31;;;;;;;3.22;2.72;;;;;;;31.35;35.25;94755.25;5010442;28;20263;-82
2022/08/08 10:41:03;;;;;;;3.58;2.67;;;;;;;31.24;34.60;94734.06;5010104;28;20254;-82
2022/08/08 10:43:39;;;;;;;7.70;3.55;;;;;;;31.29;35.95;94759.72;5009969;28;20628;-84
2022/08/08 10:46:24;;;;;;;4.28;2.80;;;;;;;31.18;35.84;94748.34;5009995;28;20222;-82
2022/08/08 10:48:52;;;;;;;5.25;2.55;;;;;;;31.28;35.88;94744.94;5009981;28;20199;-82
2022/08/08 10:51:19;;;;;;;4.68;2.88;;;;;;;31.17;35.71;94730.88;5010275;28;20200;-82
2022/08/08 10:53:48;;;;;;;3.97;2.75;;;;;;;31.24;35.77;94742.00;5010021;28;20654;-83
2022/08/08 10:56:15;;;;;;;4.90;3.08;;;;;;;31.27;36.05;94737.25;5009814;28;20659;-81
2022/08/08 10:58:44;;;;;;;5.95;2.85;;;;;;;31.20;35.73;94737.50;5009987;28;20199;-82
2022/08/08 11:01:11;;;;;;;4.50;3.05;;;;;;;31.28;36.28;94730.91;5009872;28;20207;-81
2022/08/08 11:03:43;;;;;;;4.45;3.05;;;;;;;31.19;35.01;94741.22;5012790;28;20212;-83
2022/08/08 11:06:11;;;;;;;3.38;3.10;;;;;;;30.89;35.59;94689.97;5013913;28;20192;-83
2022/08/08 11:08:39;;;;;;;4.30;2.97;;;;;;;31.18;35.80;94721.13;5013771;28;20206;-81
2022/08/08 11:11:08;;;;;;;3.35;3.00;;;;;;;31.25;36.13;94726.94;5013695;28;20192;-80
2022/08/08 11:13:39;;;;;;;8.90;2.40;;;;;;;30.99;34.99;94724.28;5013685;28;20270;-82
2022/08/08 11:16:11;;;;;;;3.28;2.78;;;;;;;30.92;35.38;94726.44;5013689;28;20196;-81
2022/08/08 11:18:39;;;;;;;3.45;2.67;;;;;;;30.94;36.18;94718.22;5013910;28;20640;-81
2022/08/08 11:21:07;;;;;;;3.10;2.80;;;;;;;31.10;35.76;94734.88;5013822;28;20587;-81
2022/08/08 11:23:36;;;;;;;5.45;2.55;;;;;;;31.01;35.41;94691.56;5015046;28;20227;-89
2022/08/08 11:26:05;;;;;;;3.20;2.53;;;;;;;31.18;35.11;94721.13;5015057;28;20196;-87
2022/08/08 11:28:35;;;;;;;3.83;2.78;;;;;;;31.20;35.62;94726.94;5013809;28;20185;-87
2022/08/08 11:31:04;;;;;;;3.67;3.38;;;;;;;31.06;35.49;94724.03;5014015;28;20679;-87
2022/08/08 11:33:35;;;;;;;7.88;2.75;;;;;;;30.92;35.76;94723.00;5013663;28;20240;-86
2022/08/08 11:36:02;;;;;;;3.33;3.03;;;;;;;30.80;35.54;94683.66;5014493;28;20192;-86
2022/08/08 11:38:30;;;;;;;4.13;3.03;;;;;;;30.95;35.50;94717.97;5013776;28;20195;-87
2022/08/08 11:40:57;;;;;;;6.43;2.50;;;;;;;31.07;35.84;94714.28;5013954;28;20194;-86
2022/08/08 11:43:24;;;;;;;2.85;2.60;;;;;;;31.12;36.18;94722.97;5013802;28;20223;-87
2022/08/08 11:45:52;;;;;;;2.90;2.70;;;;;;;31.14;36.10;94712.16;5014726;28;20192;-86
2022/08/08 11:48:20;;;;;;;3.10;2.88;;;;;;;31.11;36.51;94702.13;5013887;28;20224;-85
2022/08/08 11:50:50;;;;;;;4.38;3.22;;;;;;;30.76;36.49;94687.06;5014465;28;20776;-86
2022/08/08 11:53:20;;;;;;;5.70;3.58;;;;;;;30.85;36.04;94688.13;5013451;28;20188;-84
2022/08/08 11:55:48;;;;;;;6.15;3.47;;;;;;;30.97;36.31;94701.88;5013478;28;20193;-85
2022/08/08 11:58:15;;;;;;;6.65;2.90;;;;;;;31.02;36.56;94693.13;5016083;28;20192;-85
2022/08/08 12:00:46;;;;;;;5.10;3.03;;;;;;;30.96;36.31;94695.78;5015931;28;20188;-86
2022/08/08 12:03:22;;;;;;;4.82;3.10;;;;;;;30.87;36.54;94693.94;5015845;28;20207;-85
2022/08/08 12:05:51;;;;;;;3.15;2.95;;;;;;;30.97;36.15;94705.28;5015615;28;20191;-85
2022/08/08 12:08:30;;;;;;;4.95;4.45;;;;;;;30.83;36.21;94700.78;5014991;28;20590;-86
2022/08/08 12:11:01;;;;;;;3.83;3.40;;;;;;;30.76;36.59;94703.72;5015199;28;20640;-83
2022/08/08 12:13:28;;;;;;;6.15;3.63;;;;;;;30.49;36.62;94686.25;5015149;28;20196;-86
2022/08/08 12:16:06;;;;;;;9.80;3.00;;;;;;;30.74;37.24;94705.81;5015523;28;20198;-85